createdAt,value
2023-03-01T00:00:29.856Z,75.12
2023-03-01T00:04:57.411Z,75.41
2023-03-01T00:09:05.505Z,74.88
2023-03-01T00:13:16.590Z,75.28
2023-03-01T00:17:24.787Z,75.42
2023-03-01T00:21:33.409Z,74.81
2023-03-01T00:25:46.562Z,74.75
2023-03-01T00:29:54.007Z,74.85
2023-03-01T00:34:04.343Z,74.80
2023-03-01T00:38:12.080Z,75.02
2023-03-01T00:42:20.274Z,74.96
2023-03-01T00:46:31.591Z,74.68
2023-03-01T00:50:39.371Z,74.55
2023-03-01T00:54:48.239Z,74.61
2023-03-01T00:58:56.936Z,74.27
2023-03-01T01:03:04.768Z,74.44
2023-03-01T01:07:12.838Z,74.99
2023-03-01T01:11:21.204Z,74.77
2023-03-01T01:15:28.815Z,75.05
2023-03-01T01:19:36.681Z,75.19
2023-03-01T01:23:45.764Z,75.23
2023-03-01T01:27:55.004Z,75.09
2023-03-01T01:32:02.674Z,75.24
2023-03-01T01:36:11.678Z,74.90
2023-03-01T01:40:19.741Z,74.75
2023-03-01T01:44:29.572Z,74.83
2023-03-01T01:48:45.568Z,75.14
2023-03-01T01:52:54.240Z,75.18
2023-03-01T01:57:09.310Z,75.04
2023-03-01T02:01:18.430Z,75.09
2023-03-01T02:05:31.401Z,75.07
2023-03-01T02:09:40.054Z,75.28
2023-03-01T02:13:48.400Z,75.19
2023-03-01T02:17:56.462Z,75.12
2023-03-01T02:22:09.027Z,75.23
2023-03-01T02:26:23.317Z,75.54
2023-03-01T02:30:31.642Z,75.48
2023-03-01T02:34:40.604Z,75.13
2023-03-01T02:38:49.173Z,74.72
2023-03-01T02:42:59.940Z,75.34
2023-03-01T02:47:08.522Z,76.04
2023-03-01T02:51:25.040Z,77.04
2023-03-01T02:55:33.340Z,77.86
2023-03-01T02:59:43.870Z,77.70
2023-03-01T03:03:51.871Z,77.76
2023-03-01T03:08:01.424Z,77.71
2023-03-01T03:12:10.012Z,77.71
2023-03-01T03:16:18.998Z,77.88
2023-03-01T03:20:29.356Z,77.34
2023-03-01T03:24:39.321Z,76.94
2023-03-01T03:28:48.052Z,76.64
2023-03-01T03:32:56.661Z,76.88
2023-03-01T03:37:25.783Z,76.46
2023-03-01T03:41:33.758Z,76.49
2023-03-01T03:45:43.414Z,76.47
2023-03-01T03:49:51.038Z,76.31
2023-03-01T03:53:58.671Z,76.57
2023-03-01T03:58:09.616Z,76.72
2023-03-01T04:02:23.495Z,76.99
2023-03-01T04:06:31.728Z,76.89
2023-03-01T04:10:41.835Z,76.77
2023-03-01T04:14:52.022Z,76.44
2023-03-01T04:19:01.878Z,76.26
2023-03-01T04:23:14.500Z,76.23
2023-03-01T04:27:22.310Z,76.04
2023-03-01T04:31:31.072Z,76.06
2023-03-01T04:35:39.964Z,75.96
2023-03-01T04:39:48.765Z,75.93
2023-03-01T04:43:56.487Z,75.93
2023-03-01T04:48:04.255Z,76.04
2023-03-01T04:52:13.522Z,76.06
2023-03-01T04:56:24.156Z,76.20
2023-03-01T05:00:32.202Z,76.18
2023-03-01T05:04:39.663Z,76.28
2023-03-01T05:08:50.196Z,76.27
2023-03-01T05:12:59.599Z,75.98
2023-03-01T05:17:07.326Z,75.84
2023-03-01T05:21:17.849Z,75.98
2023-03-01T05:25:25.600Z,76.33
2023-03-01T05:29:36.304Z,76.36
2023-03-01T05:33:45.240Z,76.53
2023-03-01T05:37:53.657Z,76.72
2023-03-01T05:42:03.225Z,76.36
2023-03-01T05:46:14.612Z,76.54
2023-03-01T05:50:24.311Z,76.69
2023-03-01T05:54:35.291Z,76.77
2023-03-01T05:58:43.358Z,76.78
2023-03-01T06:02:52.417Z,76.72
2023-03-01T06:07:00.705Z,77.00
2023-03-01T06:11:11.289Z,77.34
2023-03-01T06:15:21.203Z,77.59
2023-03-01T06:19:29.102Z,78.05
2023-03-01T06:23:37.120Z,78.22
2023-03-01T06:27:45.561Z,78.36
2023-03-01T06:31:55.047Z,78.28
2023-03-01T06:36:02.704Z,78.54
2023-03-01T06:40:14.532Z,78.45
2023-03-01T06:44:22.445Z,78.60
2023-03-01T06:48:30.703Z,78.64
2023-03-01T06:52:38.506Z,78.74
2023-03-01T06:56:46.149Z,79.19
2023-03-01T07:00:53.659Z,79.33
2023-03-01T07:05:01.948Z,79.20
2023-03-01T07:09:10.110Z,79.60
2023-03-01T07:13:17.689Z,79.78
2023-03-01T07:17:25.679Z,80.07
2023-03-01T07:21:34.051Z,80.21
2023-03-01T07:25:41.674Z,80.35
2023-03-01T07:29:49.574Z,80.43
2023-03-01T07:34:14.133Z,80.69
2023-03-01T07:38:30.713Z,80.58
2023-03-01T07:42:43.086Z,80.43
2023-03-01T07:46:50.705Z,80.03
2023-03-01T07:51:02.411Z,79.74
2023-03-01T07:55:12.161Z,79.00
2023-03-01T07:59:22.860Z,79.12
2023-03-01T08:03:32.304Z,79.11
2023-03-01T08:07:46.925Z,78.62
2023-03-01T08:12:02.717Z,78.60
2023-03-01T08:16:20.157Z,78.55
2023-03-01T08:20:31.199Z,78.16
2023-03-01T08:24:40.108Z,78.01
2023-03-01T08:28:49.071Z,78.35
2023-03-01T08:33:00.788Z,77.78
2023-03-01T08:37:09.203Z,77.70
2023-03-01T08:41:16.932Z,77.59
2023-03-01T08:45:24.494Z,77.47
2023-03-01T08:49:33.891Z,77.56
2023-03-01T08:53:42.263Z,77.17
2023-03-01T08:57:49.526Z,76.16
2023-03-01T09:01:57.412Z,75.93
2023-03-01T09:06:07.002Z,75.15
2023-03-01T09:10:16.562Z,73.39
2023-03-01T09:14:25.671Z,72.93
2023-03-01T09:18:33.518Z,71.81
2023-03-01T09:22:41.113Z,70.24
2023-03-01T09:26:50.631Z,71.56
2023-03-01T09:31:02.121Z,72.56
2023-03-01T09:35:11.652Z,71.51
2023-03-01T09:39:21.470Z,69.87
2023-03-01T09:43:31.865Z,69.86
2023-03-01T09:47:41.587Z,70.30
2023-03-01T09:51:58.858Z,69.98
2023-03-01T09:56:13.682Z,70.14
2023-03-01T10:00:32.723Z,70.38
2023-03-01T10:04:47.934Z,70.40
2023-03-01T10:09:00.711Z,69.10
2023-03-01T10:13:16.458Z,68.57
2023-03-01T10:17:31.263Z,68.85
2023-03-01T10:21:46.910Z,67.56
2023-03-01T10:26:12.707Z,67.58
2023-03-01T10:30:23.144Z,68.37
2023-03-01T10:34:34.413Z,67.29
2023-03-01T10:38:56.004Z,67.36
2023-03-01T10:43:06.169Z,67.68
2023-03-01T10:47:21.833Z,67.56
2023-03-01T10:51:30.132Z,66.90
2023-03-01T10:55:40.583Z,65.99
2023-03-01T10:59:48.204Z,65.50
2023-03-01T11:04:12.119Z,65.51
2023-03-01T11:08:35.242Z,66.36
2023-03-01T11:12:43.720Z,65.77
2023-03-01T11:17:00.423Z,65.05
2023-03-01T11:21:10.267Z,65.41
2023-03-01T11:25:18.602Z,64.65
2023-03-01T11:29:40.086Z,64.15
2023-03-01T11:34:00.690Z,63.52
2023-03-01T11:38:20.632Z,62.10
2023-03-01T11:42:36.790Z,62.32
2023-03-01T11:47:09.409Z,62.04
2023-03-01T11:51:25.121Z,60.47
2023-03-01T11:55:46.239Z,60.25
2023-03-01T12:00:06.016Z,59.76
2023-03-01T12:04:51.907Z,59.24
2023-03-01T12:09:09.389Z,58.14
2023-03-01T12:13:30.039Z,58.89
2023-03-01T12:17:47.413Z,59.51
2023-03-01T12:22:10.542Z,59.75
2023-03-01T12:26:25.884Z,58.92
2023-03-01T12:30:44.692Z,58.77
2023-03-01T12:35:02.090Z,57.26
2023-03-01T12:39:20.894Z,56.71
2023-03-01T12:43:39.314Z,56.58
2023-03-01T12:48:01.383Z,56.64
2023-03-01T12:52:15.978Z,55.15
2023-03-01T12:56:26.263Z,55.99
2023-03-01T13:00:38.426Z,54.91
2023-03-01T13:05:03.816Z,54.19
2023-03-01T13:09:20.330Z,53.56
2023-03-01T13:13:29.895Z,53.07
2023-03-01T13:17:45.755Z,53.24
2023-03-01T13:21:56.628Z,52.53
2023-03-01T13:26:14.800Z,52.35
2023-03-01T13:30:45.164Z,52.04
2023-03-01T13:34:56.116Z,52.18
2023-03-01T13:39:05.394Z,51.73
2023-03-01T13:43:35.507Z,51.46
2023-03-01T13:47:44.042Z,52.09
2023-03-01T13:51:53.390Z,51.27
2023-03-01T13:56:03.346Z,49.74
2023-03-01T14:00:29.770Z,50.31
2023-03-01T14:04:38.882Z,50.15
2023-03-01T14:08:47.356Z,49.13
2023-03-01T14:13:08.289Z,48.04
2023-03-01T14:17:39.910Z,47.76
2023-03-01T14:21:47.708Z,47.35
2023-03-01T14:25:56.654Z,47.24
2023-03-01T14:30:06.511Z,46.92
2023-03-01T14:34:23.799Z,47.17
2023-03-01T14:38:37.643Z,46.69
2023-03-01T14:42:45.486Z,45.46
2023-03-01T14:46:58.349Z,43.87
2023-03-01T14:51:08.780Z,43.59
2023-03-01T14:55:21.831Z,44.03
2023-03-01T14:59:30.056Z,44.42
2023-03-01T15:03:42.303Z,44.39
2023-03-01T15:07:53.713Z,44.11
2023-03-01T15:12:01.421Z,44.48
2023-03-01T15:16:13.354Z,44.56
2023-03-01T15:20:26.944Z,44.88
2023-03-01T15:24:37.468Z,45.03
2023-03-01T15:28:53.495Z,44.84
2023-03-01T15:33:23.147Z,45.37
2023-03-01T15:37:49.701Z,45.78
2023-03-01T15:41:58.690Z,45.71
2023-03-01T15:46:07.220Z,45.71
2023-03-01T15:50:20.377Z,46.40
2023-03-01T15:54:29.703Z,46.77
2023-03-01T15:58:37.688Z,46.99
2023-03-01T16:02:46.612Z,47.37
2023-03-01T16:06:56.583Z,47.84
2023-03-01T16:11:06.953Z,48.45
2023-03-01T16:15:21.459Z,48.51
2023-03-01T16:19:29.823Z,49.32
2023-03-01T16:23:41.200Z,49.35
2023-03-01T16:27:50.143Z,49.80
2023-03-01T16:31:58.885Z,49.76
2023-03-01T16:36:11.851Z,50.00
2023-03-01T16:40:24.428Z,50.91
2023-03-01T16:44:32.192Z,50.42
2023-03-01T16:48:40.189Z,50.28
2023-03-01T16:52:48.126Z,51.10
2023-03-01T16:56:56.417Z,51.75
2023-03-01T17:01:11.955Z,52.54
2023-03-01T17:05:22.187Z,53.15
2023-03-01T17:09:31.529Z,53.54
2023-03-01T17:13:40.019Z,53.81
2023-03-01T17:17:52.009Z,54.32
2023-03-01T17:22:01.367Z,55.27
2023-03-01T17:26:09.951Z,56.00
2023-03-01T17:30:19.109Z,56.83
2023-03-01T17:34:27.137Z,57.72
2023-03-01T17:38:36.700Z,57.81
2023-03-01T17:42:45.482Z,57.67
2023-03-01T17:46:53.114Z,58.20
2023-03-01T17:51:01.218Z,58.17
2023-03-01T17:55:11.145Z,58.40
2023-03-01T17:59:19.272Z,58.69
2023-03-01T18:03:27.114Z,58.99
2023-03-01T18:07:35.229Z,59.42
2023-03-01T18:11:46.819Z,59.91
2023-03-01T18:16:01.033Z,60.55
2023-03-01T18:20:13.278Z,60.56
2023-03-01T18:24:21.225Z,60.51
2023-03-01T18:28:29.679Z,60.96
2023-03-01T18:32:39.786Z,61.36
2023-03-01T18:37:00.509Z,61.53
2023-03-01T18:41:14.388Z,62.11
2023-03-01T18:45:22.166Z,62.28
2023-03-01T18:49:30.393Z,62.51
2023-03-01T18:53:37.808Z,63.28
2023-03-01T18:57:46.053Z,63.35
2023-03-01T19:01:53.847Z,63.19
2023-03-01T19:06:02.811Z,63.21
2023-03-01T19:10:12.839Z,63.56
2023-03-01T19:14:21.173Z,63.74
2023-03-01T19:18:30.769Z,64.11
2023-03-01T19:22:39.159Z,64.52
2023-03-01T19:26:46.953Z,64.66
2023-03-01T19:30:54.410Z,64.81
2023-03-01T19:35:02.678Z,64.81
2023-03-01T19:39:11.352Z,64.94
2023-03-01T19:43:20.544Z,65.23
2023-03-01T19:47:29.231Z,65.68
2023-03-01T19:51:39.761Z,65.84
2023-03-01T19:55:49.813Z,66.17
2023-03-01T19:59:57.498Z,66.34
2023-03-01T20:04:06.230Z,66.32
2023-03-01T20:08:13.904Z,66.90
2023-03-01T20:12:21.266Z,66.84
2023-03-01T20:16:29.246Z,66.92
2023-03-01T20:20:36.858Z,67.07
2023-03-01T20:24:45.612Z,67.57
2023-03-01T20:28:55.440Z,67.74
2023-03-01T20:33:05.102Z,68.09
2023-03-01T20:37:13.312Z,68.22
2023-03-01T20:41:26.187Z,68.27
2023-03-01T20:45:34.307Z,67.97
2023-03-01T20:49:42.413Z,67.88
2023-03-01T20:53:50.549Z,68.19
2023-03-01T20:57:58.115Z,68.75
2023-03-01T21:02:06.223Z,69.33
2023-03-01T21:06:14.607Z,69.81
2023-03-01T21:10:22.209Z,70.21
2023-03-01T21:14:42.588Z,70.05
2023-03-01T21:18:50.689Z,70.53
2023-03-01T21:22:58.205Z,70.75
2023-03-01T21:27:07.536Z,70.38
2023-03-01T21:31:17.198Z,70.38
2023-03-01T21:35:26.277Z,70.42
2023-03-01T21:39:34.100Z,70.54
2023-03-01T21:43:42.731Z,70.59
2023-03-01T21:47:50.966Z,70.59
2023-03-01T21:51:58.635Z,70.54
2023-03-01T21:56:06.970Z,70.48
2023-03-01T22:00:17.484Z,70.72
2023-03-01T22:04:27.447Z,70.77
2023-03-01T22:08:35.140Z,71.04
2023-03-01T22:12:42.868Z,71.13
2023-03-01T22:16:51.853Z,71.48
2023-03-01T22:20:59.534Z,71.58
2023-03-01T22:25:08.266Z,71.70
2023-03-01T22:29:17.617Z,71.33
2023-03-01T22:33:26.240Z,71.11
2023-03-01T22:37:34.360Z,71.33
2023-03-01T22:41:45.853Z,71.19
2023-03-01T22:45:54.043Z,71.40
2023-03-01T22:50:01.851Z,71.93
2023-03-01T22:54:11.300Z,71.97
2023-03-01T22:58:20.454Z,72.07
2023-03-01T23:02:28.691Z,72.19
2023-03-01T23:06:50.855Z,72.11
2023-03-01T23:10:59.232Z,72.37
2023-03-01T23:15:07.765Z,72.69
2023-03-01T23:19:17.114Z,72.87
2023-03-01T23:23:25.101Z,73.29
2023-03-01T23:27:32.700Z,73.56
2023-03-01T23:31:40.495Z,73.66
2023-03-01T23:35:48.193Z,74.09
2023-03-01T23:39:56.012Z,73.80
2023-03-01T23:44:05.605Z,73.62
2023-03-01T23:48:14.562Z,74.09
2023-03-01T23:52:22.882Z,73.82
2023-03-01T23:56:34.283Z,73.69
